Seboeis Plt, Maine
Current Conditions -  °F | °C
As of 10:53 AM on Thursday 23 Oct 2014 (Local Time) from KBGR Reporting Station
Light Rain Light Rain  
Wind Chill: 50°   Ceiling: 1300
Heat Index: 50°   Visibility: 3mi
Dew Point: 48°   Wind: 20mph
Humidity: 93%   Direction: 40°NE
Pressure: 29.92"   Gusts: 29mph
Location:  45.1976°N, 68.703°W
Report Text: KBGR 231453Z 04017G25KT 3SM -RA BR OVC013 10/09 A2992 RMK AO2 PK WND 03028/1406 SLP131 P0004 60031 T01000089 56014
Loading
Personal Weather Stations






























Interactive Weather Map
Tropical Storm Tracking
New forecast layout! Learn more

10-Day Weather Forecast

Advertisements
Track Severe Weather on mobile